createdAt,value
2023-04-16T00:00:33.121Z,65.25
2023-04-16T00:03:20.928Z,70.82
2023-04-16T00:05:48.710Z,87.25
2023-04-16T00:08:16.070Z,90.05
2023-04-16T00:10:43.712Z,96.53
2023-04-16T00:13:13.389Z,102.57
2023-04-16T00:15:40.971Z,106.20
2023-04-16T00:18:08.195Z,87.78
2023-04-16T00:20:35.748Z,90.82
2023-04-16T00:23:02.886Z,84.57
2023-04-16T00:25:33.238Z,93.18
2023-04-16T00:28:00.657Z,66.47
2023-04-16T00:30:28.253Z,77.63
2023-04-16T00:32:55.702Z,69.80
2023-04-16T00:35:23.483Z,89.10
2023-04-16T00:37:50.674Z,83.22
2023-04-16T00:40:18.324Z,85.30
2023-04-16T00:42:46.013Z,88.88
2023-04-16T00:45:14.023Z,79.53
2023-04-16T00:47:41.351Z,83.78
2023-04-16T00:50:09.193Z,98.68
2023-04-16T00:52:36.679Z,92.57
2023-04-16T00:55:06.675Z,86.30
2023-04-16T00:57:33.936Z,98.68
2023-04-16T01:00:03.002Z,84.75
2023-04-16T01:02:30.754Z,82.70
2023-04-16T01:04:58.326Z,88.25
2023-04-16T01:07:25.557Z,73.13
2023-04-16T01:09:53.203Z,76.15
2023-04-16T01:12:20.399Z,90.78
2023-04-16T01:14:48.215Z,88.15
2023-04-16T01:17:15.844Z,111.97
2023-04-16T01:19:43.563Z,117.28
2023-04-16T01:22:10.939Z,100.40
2023-04-16T01:24:38.790Z,118.07
2023-04-16T01:27:06.481Z,111.28
2023-04-16T01:29:33.965Z,122.97
2023-04-16T01:32:01.380Z,134.93
2023-04-16T01:34:32.714Z,124.88
2023-04-16T01:36:59.925Z,119.28
2023-04-16T01:39:28.239Z,138.30
2023-04-16T01:41:57.610Z,125.97
2023-04-16T01:44:25.696Z,128.20
2023-04-16T01:46:53.233Z,119.63
2023-04-16T01:49:22.927Z,122.03
2023-04-16T01:51:50.124Z,125.57
2023-04-16T01:54:17.664Z,120.85
2023-04-16T01:56:45.487Z,121.25
2023-04-16T01:59:12.978Z,112.68
2023-04-16T02:01:42.746Z,130.68
2023-04-16T02:04:11.182Z,135.80
2023-04-16T02:06:39.149Z,127.68
2023-04-16T02:09:06.855Z,109.90
2023-04-16T02:11:34.476Z,113.03
2023-04-16T02:14:02.038Z,115.97
2023-04-16T02:16:29.635Z,106.20
2023-04-16T02:19:08.409Z,102.03
2023-04-16T02:21:37.064Z,101.15
2023-04-16T02:24:05.355Z,106.13
2023-04-16T02:26:33.510Z,106.40
2023-04-16T02:29:06.485Z,94.20
2023-04-16T02:31:40.315Z,104.35
2023-04-16T02:34:09.266Z,104.28
2023-04-16T02:36:36.629Z,107.93
2023-04-16T02:39:04.799Z,107.80
2023-04-16T02:41:32.049Z,117.07
2023-04-16T02:43:59.670Z,112.25
2023-04-16T02:46:27.222Z,122.07
2023-04-16T02:48:54.973Z,112.03
2023-04-16T02:51:22.153Z,117.82
2023-04-16T02:53:49.767Z,104.18
2023-04-16T02:56:16.969Z,117.95
2023-04-16T02:58:44.549Z,118.60
2023-04-16T03:01:11.828Z,115.72
2023-04-16T03:03:39.503Z,119.15
2023-04-16T03:06:06.748Z,126.35
2023-04-16T03:08:34.394Z,111.70
2023-04-16T03:11:01.751Z,108.57
2023-04-16T03:13:29.384Z,115.63
2023-04-16T03:15:56.865Z,126.25
2023-04-16T03:18:24.835Z,128.15
2023-04-16T03:20:53.331Z,128.05
2023-04-16T03:23:20.971Z,118.72
2023-04-16T03:25:48.288Z,127.80
2023-04-16T03:28:18.749Z,127.78
2023-04-16T03:30:55.386Z,138.15
2023-04-16T03:33:23.190Z,129.55
2023-04-16T03:35:58.461Z,131.68
2023-04-16T03:38:29.071Z,121.68
2023-04-16T03:40:57.920Z,121.55
2023-04-16T03:43:25.885Z,111.90
2023-04-16T03:45:53.214Z,99.68
2023-04-16T03:48:26.443Z,119.95
2023-04-16T03:50:54.629Z,106.22
2023-04-16T03:53:22.097Z,107.38
2023-04-16T03:55:52.767Z,117.68
2023-04-16T03:58:21.602Z,113.03
2023-04-16T04:00:48.850Z,121.80
2023-04-16T04:03:18.743Z,131.40
2023-04-16T04:05:48.770Z,123.88
2023-04-16T04:08:21.883Z,133.63
2023-04-16T04:10:49.313Z,118.90
2023-04-16T04:13:16.888Z,132.63
2023-04-16T04:15:44.927Z,143.30
2023-04-16T04:18:12.529Z,125.78
2023-04-16T04:20:41.403Z,115.38
2023-04-16T04:23:09.507Z,110.63
2023-04-16T04:25:37.058Z,133.85
2023-04-16T04:28:04.796Z,139.38
2023-04-16T04:30:32.371Z,138.07
2023-04-16T04:33:02.289Z,123.85
2023-04-16T04:35:29.542Z,128.77
2023-04-16T04:37:59.198Z,142.90
2023-04-16T04:40:27.583Z,139.10
2023-04-16T04:42:55.097Z,127.30
2023-04-16T04:45:27.216Z,126.53
2023-04-16T04:47:55.854Z,122.50
2023-04-16T04:50:23.193Z,125.10
2023-04-16T04:52:50.768Z,130.50
2023-04-16T04:55:18.131Z,104.90
2023-04-16T04:57:45.686Z,115.90
2023-04-16T05:00:13.144Z,137.77
2023-04-16T05:02:48.093Z,132.98
2023-04-16T05:05:15.758Z,147.32
2023-04-16T05:07:43.335Z,128.35
2023-04-16T05:10:10.870Z,108.88
2023-04-16T05:12:38.423Z,95.35
2023-04-16T05:15:06.279Z,102.43
2023-04-16T05:17:33.930Z,95.30
2023-04-16T05:20:01.358Z,103.60
2023-04-16T05:22:28.947Z,100.10
2023-04-16T05:24:56.598Z,102.32
2023-04-16T05:27:24.247Z,102.50
2023-04-16T05:29:51.500Z,100.93
2023-04-16T05:32:21.806Z,110.75
2023-04-16T05:34:49.053Z,110.82
2023-04-16T05:37:16.529Z,105.05
2023-04-16T05:39:43.684Z,97.72
2023-04-16T05:42:11.337Z,104.00
2023-04-16T05:44:38.587Z,98.47
2023-04-16T05:47:09.986Z,103.30
2023-04-16T05:49:40.093Z,102.85
2023-04-16T05:52:07.736Z,99.00
2023-04-16T05:54:34.892Z,101.85
2023-04-16T05:57:02.539Z,92.82
2023-04-16T05:59:31.109Z,92.95
2023-04-16T06:01:58.857Z,83.55
2023-04-16T06:04:26.530Z,78.13
2023-04-16T06:06:54.035Z,77.47
2023-04-16T06:09:21.180Z,73.60
2023-04-16T06:11:49.234Z,61.75
2023-04-16T06:14:16.498Z,68.20
2023-04-16T06:16:44.306Z,49.25
2023-04-16T06:19:11.707Z,28.83
2023-04-16T06:21:39.510Z,51.70
2023-04-16T06:24:09.856Z,34.00
2023-04-16T06:26:37.571Z,25.38
2023-04-16T06:29:04.996Z,19.10
2023-04-16T06:31:32.628Z,18.10
2023-04-16T06:33:59.994Z,19.25
2023-04-16T06:36:29.176Z,19.75
2023-04-16T06:38:56.422Z,18.30
2023-04-16T06:41:25.919Z,15.52
2023-04-16T06:43:53.177Z,22.45
2023-04-16T06:46:20.874Z,19.70
2023-04-16T06:48:48.214Z,25.00
2023-04-16T06:51:17.051Z,22.35
2023-04-16T06:53:44.774Z,24.13
2023-04-16T06:56:12.440Z,16.90
2023-04-16T06:58:39.739Z,19.35
2023-04-16T07:01:07.325Z,14.95
2023-04-16T07:03:35.258Z,17.60
2023-04-16T07:06:03.090Z,16.92
2023-04-16T07:08:30.432Z,14.85
2023-04-16T07:10:58.306Z,17.35
2023-04-16T07:13:26.114Z,17.35
2023-04-16T07:15:54.297Z,17.52
2023-04-16T07:18:21.901Z,17.42
2023-04-16T07:20:49.628Z,16.63
2023-04-16T07:23:16.829Z,13.18
2023-04-16T07:25:44.649Z,13.63
2023-04-16T07:28:12.052Z,9.48
2023-04-16T07:30:39.667Z,9.60
2023-04-16T07:33:07.057Z,9.30
2023-04-16T07:35:34.682Z,7.93
2023-04-16T07:38:01.994Z,13.40
2023-04-16T07:40:30.441Z,9.85
2023-04-16T07:42:57.837Z,6.45
2023-04-16T07:45:25.359Z,67.30
2023-04-16T07:47:52.774Z,66.60
2023-04-16T07:50:23.080Z,99.03
2023-04-16T07:52:50.326Z,12.02
2023-04-16T07:55:18.135Z,8.70
2023-04-16T07:57:45.958Z,20.75
2023-04-16T08:00:20.898Z,8.50
2023-04-16T08:02:48.777Z,6.50
2023-04-16T08:05:16.672Z,6.05
2023-04-16T08:07:44.107Z,7.97
2023-04-16T08:10:12.163Z,13.02
2023-04-16T08:12:39.612Z,8.57
2023-04-16T08:15:08.324Z,7.95
2023-04-16T08:17:35.722Z,5.18
2023-04-16T08:20:04.156Z,8.98
2023-04-16T08:22:31.476Z,6.65
2023-04-16T08:24:59.113Z,6.10
2023-04-16T08:27:26.424Z,6.80
2023-04-16T08:29:54.003Z,5.18
2023-04-16T08:32:21.295Z,5.15
2023-04-16T08:34:48.983Z,4.75
2023-04-16T08:37:16.281Z,5.22
2023-04-16T08:39:43.901Z,6.50
2023-04-16T08:42:19.405Z,4.45
2023-04-16T08:47:16.895Z,3.33
2023-04-16T08:49:48.299Z,4.97
2023-04-16T08:52:20.437Z,4.82
2023-04-16T08:55:03.558Z,5.28
2023-04-16T08:57:44.873Z,5.45
2023-04-16T09:00:14.346Z,5.43
2023-04-16T09:02:43.030Z,3.50
2023-04-16T09:05:13.677Z,3.60
2023-04-16T09:07:42.395Z,3.28
2023-04-16T09:10:10.899Z,2.70
2023-04-16T09:12:39.362Z,2.42
2023-04-16T09:15:08.304Z,1.63
2023-04-16T09:17:35.938Z,1.92
2023-04-16T09:20:06.260Z,2.08
2023-04-16T09:22:33.632Z,1.70
2023-04-16T09:25:01.432Z,1.42
2023-04-16T09:27:28.738Z,1.50
2023-04-16T09:29:56.317Z,2.30
2023-04-16T09:32:28.044Z,2.55
2023-04-16T09:34:59.600Z,1.20
2023-04-16T09:37:30.033Z,1.92
2023-04-16T09:40:04.931Z,2.70
2023-04-16T09:42:34.258Z,2.35
2023-04-16T09:45:04.867Z,0.82
2023-04-16T09:47:44.650Z,1.10
2023-04-16T09:50:18.602Z,1.77
2023-04-16T09:52:53.357Z,1.00
2023-04-16T09:55:27.675Z,1.00
2023-04-16T09:58:01.731Z,1.03
2023-04-16T10:00:31.657Z,3.30
2023-04-16T10:03:07.081Z,2.33
2023-04-16T10:05:35.417Z,3.25
2023-04-16T10:08:03.431Z,1.20
2023-04-16T10:10:32.406Z,1.45
2023-04-16T10:13:00.318Z,42.33
2023-04-16T10:15:29.854Z,1.35
2023-04-16T10:17:58.995Z,1.27
2023-04-16T10:20:28.351Z,3.13
2023-04-16T10:22:56.747Z,1.25
2023-04-16T10:25:24.780Z,3.30
2023-04-16T10:27:52.321Z,1.35
2023-04-16T10:30:21.908Z,1.10
2023-04-16T10:32:51.240Z,1.45
2023-04-16T10:35:21.804Z,2.42
2023-04-16T10:37:49.552Z,1.50
2023-04-16T10:40:27.877Z,1.40
2023-04-16T10:43:01.093Z,1.67
2023-04-16T10:45:38.041Z,1.23
2023-04-16T10:48:08.830Z,0.90
2023-04-16T10:50:37.566Z,0.80
2023-04-16T10:53:27.021Z,0.85
2023-04-16T10:56:04.619Z,1.80
2023-04-16T10:58:35.465Z,1.10
2023-04-16T11:01:11.426Z,0.98
2023-04-16T11:03:43.153Z,1.13
2023-04-16T11:06:14.851Z,6.63
2023-04-16T11:08:53.878Z,1.40
2023-04-16T11:11:23.429Z,0.77
2023-04-16T11:13:56.061Z,1.02
2023-04-16T11:16:25.556Z,1.20
2023-04-16T11:18:53.953Z,0.82
2023-04-16T11:21:24.468Z,1.45
2023-04-16T11:23:53.494Z,1.52
2023-04-16T11:26:31.320Z,2.00
2023-04-16T11:29:00.396Z,1.20
2023-04-16T11:31:28.412Z,0.73
2023-04-16T11:33:56.997Z,0.98
2023-04-16T11:36:26.937Z,0.80
2023-04-16T11:39:03.697Z,0.68
2023-04-16T11:41:31.392Z,2.53
2023-04-16T11:43:58.718Z,0.75
2023-04-16T11:46:39.676Z,1.48
2023-04-16T11:49:07.080Z,0.60
2023-04-16T11:51:42.511Z,0.80
2023-04-16T11:54:12.081Z,1.25
2023-04-16T11:56:46.923Z,10.77
2023-04-16T11:59:23.294Z,1.30
2023-04-16T12:01:52.731Z,10.70
2023-04-16T12:04:21.726Z,2.15
2023-04-16T12:07:12.370Z,0.80
2023-04-16T12:09:43.935Z,1.25
2023-04-16T12:13:27.572Z,2.22
2023-04-16T12:15:57.272Z,1.05
2023-04-16T12:18:28.825Z,2.30
2023-04-16T12:20:56.528Z,1.25
2023-04-16T12:23:33.169Z,1.08
2023-04-16T12:26:10.625Z,1.63
2023-04-16T12:28:38.847Z,2.25
2023-04-16T12:31:07.469Z,1.15
2023-04-16T12:33:34.696Z,0.85
2023-04-16T12:36:16.689Z,0.85
2023-04-16T12:38:43.948Z,1.55
2023-04-16T12:41:11.561Z,1.95
2023-04-16T12:43:38.829Z,0.70
2023-04-16T12:46:06.937Z,1.00
2023-04-16T12:48:34.762Z,1.30
2023-04-16T12:51:02.791Z,1.33
2023-04-16T12:53:30.216Z,0.93
2023-04-16T12:55:57.911Z,0.82
2023-04-16T12:58:25.192Z,0.77
2023-04-16T13:00:52.713Z,1.40
2023-04-16T13:03:24.097Z,6.40
2023-04-16T13:05:51.991Z,1.27
2023-04-16T13:08:19.296Z,2.60
2023-04-16T13:10:46.939Z,3.58
2023-04-16T13:13:14.480Z,1.95
2023-04-16T13:15:42.061Z,1.35
2023-04-16T13:18:09.369Z,1.35
2023-04-16T13:20:37.127Z,1.02
2023-04-16T13:23:07.225Z,1.75
2023-04-16T13:25:35.278Z,0.60
2023-04-16T13:28:03.041Z,1.58
2023-04-16T13:30:31.896Z,1.17
2023-04-16T13:32:59.712Z,0.95
2023-04-16T13:35:27.640Z,0.88
2023-04-16T13:37:54.958Z,1.20
2023-04-16T13:40:22.541Z,2.78
2023-04-16T13:42:49.860Z,1.60
2023-04-16T13:45:17.631Z,1.88
2023-04-16T13:47:44.919Z,2.45
2023-04-16T13:50:12.667Z,1.00
2023-04-16T13:52:39.892Z,0.93
2023-04-16T13:55:10.229Z,0.75
2023-04-16T13:57:37.539Z,1.77
2023-04-16T14:00:05.693Z,1.48
2023-04-16T14:02:33.301Z,1.30
2023-04-16T14:05:01.137Z,2.17
2023-04-16T14:07:29.399Z,1.17
2023-04-16T14:09:56.986Z,1.30
2023-04-16T14:12:28.569Z,4.40
2023-04-16T14:14:57.252Z,0.70
2023-04-16T14:17:24.846Z,4.30
2023-04-16T14:19:52.545Z,1.10
2023-04-16T14:22:19.877Z,2.53
2023-04-16T14:24:47.555Z,0.95
2023-04-16T14:27:19.787Z,0.85
2023-04-16T14:29:47.391Z,2.13
2023-04-16T14:32:14.827Z,1.65
2023-04-16T14:34:42.494Z,1.02
2023-04-16T14:37:09.949Z,5.07
2023-04-16T14:39:39.338Z,1.23
2023-04-16T14:42:06.815Z,0.70
2023-04-16T14:44:34.444Z,2.72
2023-04-16T14:47:01.711Z,1.13
2023-04-16T14:49:29.430Z,2.17
2023-04-16T14:51:57.264Z,3.40
2023-04-16T14:54:24.907Z,2.25
2023-04-16T14:56:52.206Z,2.60
2023-04-16T14:59:19.954Z,1.92
2023-04-16T15:01:47.455Z,5.20
2023-04-16T15:04:15.444Z,1.75
2023-04-16T15:06:43.120Z,4.40
2023-04-16T15:09:11.054Z,2.55
2023-04-16T15:11:38.546Z,1.95
2023-04-16T15:14:07.005Z,5.55
2023-04-16T15:16:34.434Z,1.42
2023-04-16T15:19:07.243Z,1.95
2023-04-16T15:21:34.599Z,1.45
2023-04-16T15:24:02.767Z,1.38
2023-04-16T15:26:30.673Z,1.58
2023-04-16T15:28:58.278Z,2.55
2023-04-16T15:31:26.250Z,41.03
2023-04-16T15:33:54.738Z,45.35
2023-04-16T15:36:22.266Z,11.57
2023-04-16T15:38:49.832Z,2.22
2023-04-16T15:41:17.120Z,1.65
2023-04-16T15:43:45.324Z,2.05
2023-04-16T15:46:15.382Z,4.88
2023-04-16T15:48:43.149Z,5.93
2023-04-16T15:51:12.735Z,4.00
2023-04-16T15:53:40.383Z,1.60
2023-04-16T15:56:07.663Z,4.95
2023-04-16T15:58:35.373Z,2.75
2023-04-16T16:01:02.675Z,3.20
2023-04-16T16:03:32.458Z,3.00
2023-04-16T16:06:00.005Z,4.32
2023-04-16T16:08:27.620Z,3.05
2023-04-16T16:10:55.075Z,2.80
2023-04-16T16:13:22.652Z,2.78
2023-04-16T16:15:51.060Z,3.45
2023-04-16T16:18:18.838Z,4.70
2023-04-16T16:20:46.160Z,2.90
2023-04-16T16:23:13.902Z,6.55
2023-04-16T16:25:42.353Z,4.25
2023-04-16T16:28:12.664Z,3.05
2023-04-16T16:30:40.933Z,4.28
2023-04-16T16:33:08.662Z,2.88
2023-04-16T16:35:36.829Z,2.92
2023-04-16T16:38:05.066Z,5.03
2023-04-16T16:40:32.459Z,8.63
2023-04-16T16:43:00.153Z,4.97
2023-04-16T16:45:28.769Z,5.55
2023-04-16T16:47:59.029Z,5.43
2023-04-16T16:50:26.392Z,8.02
2023-04-16T16:52:55.181Z,6.28
2023-04-16T16:55:23.199Z,5.38
2023-04-16T16:57:50.979Z,5.55
2023-04-16T17:00:20.293Z,4.25
2023-04-16T17:02:50.411Z,4.57
2023-04-16T17:05:18.280Z,6.50
2023-04-16T17:07:46.138Z,7.15
2023-04-16T17:10:20.078Z,6.38
2023-04-16T17:12:48.903Z,9.20
2023-04-16T17:15:19.115Z,7.30
2023-04-16T17:17:48.444Z,4.85
2023-04-16T17:20:16.174Z,3.60
2023-04-16T17:22:43.919Z,5.78
2023-04-16T17:25:11.807Z,7.25
2023-04-16T17:27:39.484Z,5.57
2023-04-16T17:30:07.616Z,7.28
2023-04-16T17:32:35.493Z,5.75
2023-04-16T17:35:04.542Z,4.65
2023-04-16T17:37:32.423Z,9.27
2023-04-16T17:39:59.722Z,10.73
2023-04-16T17:42:27.332Z,13.82
2023-04-16T17:44:54.677Z,20.80
2023-04-16T17:47:22.497Z,9.77
2023-04-16T17:49:53.401Z,16.67
2023-04-16T17:52:21.710Z,18.77
2023-04-16T17:54:49.254Z,9.63
2023-04-16T17:57:17.104Z,6.43
2023-04-16T17:59:44.274Z,3.85
2023-04-16T18:02:12.001Z,19.13
2023-04-16T18:04:41.616Z,7.60
2023-04-16T18:07:09.405Z,3.50
2023-04-16T18:09:37.016Z,6.75
2023-04-16T18:12:04.938Z,3.28
2023-04-16T18:14:34.475Z,7.80
2023-04-16T18:17:03.580Z,9.40
2023-04-16T18:19:32.502Z,7.93
2023-04-16T18:22:02.260Z,138.10
2023-04-16T18:24:29.545Z,28.58
2023-04-16T18:26:57.089Z,23.23
2023-04-16T18:29:25.500Z,16.05
2023-04-16T18:31:55.127Z,19.25
2023-04-16T18:34:22.960Z,37.53
2023-04-16T18:36:50.671Z,28.92
2023-04-16T18:39:18.276Z,80.93
2023-04-16T18:41:48.084Z,44.88
2023-04-16T18:44:16.330Z,33.80
2023-04-16T18:46:46.241Z,110.70
2023-04-16T18:49:13.802Z,213.23
2023-04-16T18:51:42.248Z,173.68
2023-04-16T18:54:09.531Z,231.80
2023-04-16T18:56:37.334Z,137.60
2023-04-16T18:59:04.714Z,178.90
2023-04-16T19:01:32.346Z,99.57
2023-04-16T19:03:59.789Z,126.97
2023-04-16T19:06:27.983Z,200.10
2023-04-16T19:08:55.519Z,200.43
2023-04-16T19:11:23.282Z,54.22
2023-04-16T19:13:50.648Z,54.22
2023-04-16T19:16:18.368Z,71.18
2023-04-16T19:18:45.761Z,73.68
2023-04-16T19:21:13.535Z,92.43
2023-04-16T19:23:40.922Z,189.93
2023-04-16T19:26:08.638Z,81.72
2023-04-16T19:28:36.031Z,90.75
2023-04-16T19:31:03.853Z,61.58
2023-04-16T19:33:31.622Z,65.63
2023-04-16T19:36:00.470Z,53.22
2023-04-16T19:38:28.306Z,76.00
2023-04-16T19:40:55.999Z,189.98
2023-04-16T19:43:23.520Z,71.60
2023-04-16T19:45:53.604Z,123.60
2023-04-16T19:48:21.607Z,73.38
2023-04-16T19:50:51.430Z,307.17
2023-04-16T19:53:18.756Z,177.15
2023-04-16T19:55:46.351Z,186.52
2023-04-16T19:58:17.399Z,121.72
2023-04-16T20:00:45.045Z,65.00
2023-04-16T20:03:12.365Z,135.65
2023-04-16T20:05:40.083Z,113.90
2023-04-16T20:08:07.345Z,101.97
2023-04-16T20:10:34.961Z,135.77
2023-04-16T20:13:02.184Z,206.00
2023-04-16T20:15:29.807Z,126.22
2023-04-16T20:17:57.679Z,78.50
2023-04-16T20:20:25.695Z,137.77
2023-04-16T20:22:52.978Z,103.53
2023-04-16T20:25:20.851Z,163.70
2023-04-16T20:27:48.288Z,85.60
2023-04-16T20:30:16.037Z,81.32
2023-04-16T20:32:43.281Z,85.82
2023-04-16T20:35:11.676Z,88.82
2023-04-16T20:37:39.223Z,120.22
2023-04-16T20:40:09.033Z,97.60
2023-04-16T20:42:36.371Z,105.18
2023-04-16T20:45:05.061Z,141.23
2023-04-16T20:47:34.836Z,130.05
2023-04-16T20:50:03.143Z,123.57
2023-04-16T20:52:31.004Z,125.68
2023-04-16T20:54:58.558Z,125.90
2023-04-16T20:57:26.322Z,128.82
2023-04-16T20:59:54.890Z,201.32
2023-04-16T21:02:23.826Z,176.27
2023-04-16T21:04:51.696Z,147.98
2023-04-16T21:07:19.132Z,119.85
2023-04-16T21:09:46.762Z,163.05
2023-04-16T21:12:13.995Z,99.82
2023-04-16T21:14:41.505Z,78.13
2023-04-16T21:17:08.772Z,88.45
2023-04-16T21:19:36.257Z,84.82
2023-04-16T21:22:03.511Z,70.30
2023-04-16T21:24:33.150Z,77.28
2023-04-16T21:27:01.076Z,64.07
2023-04-16T21:29:28.688Z,57.35
2023-04-16T21:31:55.972Z,59.17
2023-04-16T21:34:23.626Z,55.17
2023-04-16T21:36:50.885Z,51.38
2023-04-16T21:39:19.996Z,61.85
2023-04-16T21:41:47.684Z,53.35
2023-04-16T21:44:15.547Z,57.97
2023-04-16T21:46:43.011Z,60.45
2023-04-16T21:49:10.970Z,101.93
2023-04-16T21:51:40.486Z,128.05
2023-04-16T21:54:08.312Z,103.45
2023-04-16T21:56:35.592Z,95.28
2023-04-16T21:59:03.605Z,89.88
2023-04-16T22:01:30.958Z,97.97
2023-04-16T22:03:58.722Z,121.70
2023-04-16T22:06:27.354Z,150.70
2023-04-16T22:08:55.057Z,139.18
2023-04-16T22:11:22.808Z,144.05
2023-04-16T22:13:50.447Z,142.95
2023-04-16T22:16:17.803Z,128.77
2023-04-16T22:18:46.523Z,127.47
2023-04-16T22:21:14.136Z,136.00
2023-04-16T22:23:41.848Z,129.50
2023-04-16T22:26:09.342Z,133.40
2023-04-16T22:28:36.915Z,113.15
2023-04-16T22:31:05.488Z,90.43
2023-04-16T22:33:36.930Z,94.75
2023-04-16T22:36:04.807Z,98.00
2023-04-16T22:38:32.395Z,124.63
2023-04-16T22:40:59.785Z,136.77
2023-04-16T22:43:28.210Z,182.18
2023-04-16T22:46:04.637Z,120.38
2023-04-16T22:48:34.189Z,129.57
2023-04-16T22:51:01.355Z,122.15
2023-04-16T22:53:28.929Z,159.95
2023-04-16T22:55:56.274Z,287.02
2023-04-16T22:58:23.791Z,182.48
2023-04-16T23:00:52.147Z,79.55
2023-04-16T23:03:21.799Z,69.63
2023-04-16T23:05:49.281Z,69.78
2023-04-16T23:08:16.858Z,118.45
2023-04-16T23:10:44.234Z,74.95
2023-04-16T23:13:11.910Z,91.55
2023-04-16T23:15:39.107Z,71.53
2023-04-16T23:18:06.958Z,61.20
2023-04-16T23:20:34.196Z,68.90
2023-04-16T23:23:01.769Z,74.18
2023-04-16T23:25:28.998Z,85.70
2023-04-16T23:27:56.955Z,117.55
2023-04-16T23:30:24.115Z,68.70
2023-04-16T23:32:51.832Z,61.28
2023-04-16T23:35:22.998Z,73.65
2023-04-16T23:37:50.640Z,83.20
2023-04-16T23:40:17.980Z,82.63
2023-04-16T23:42:45.618Z,69.03
2023-04-16T23:45:12.982Z,197.70
2023-04-16T23:47:40.647Z,231.85
2023-04-16T23:50:10.564Z,216.32
2023-04-16T23:52:38.115Z,197.30
2023-04-16T23:55:05.793Z,143.48
2023-04-16T23:57:33.381Z,114.80
